Time;durP1;ratioP1;P1;durP2;ratioP2;P2;SDS_P1;SDS_P2;PMS_P1;PMS_P2;Temp;Humidity;BMP_temperature;BMP_pressure;BME280_temperature;BME280_humidity;BME280_pressure;Samples;Min_cycle;Max_cycle;Signal;HPM_P1;HPM_P2
2022/06/12 00:00:17;;;;;;;4.23;3.67;;;;;;;;;;7393727;19;20148;-81
2022/06/12 00:02:43;;;;;;;4.87;3.50;;;;;;;;;;7393778;19;20241;-81
2022/06/12 00:05:11;;;;;;;4.20;3.80;;;;;;;;;;7394849;19;20124;-82
2022/06/12 00:07:36;;;;;;;5.20;3.80;;;;;;;;;;7421166;19;20189;-80
2022/06/12 00:10:03;;;;;;;9.33;4.07;;;;;;;;;;7429045;19;20128;-84
2022/06/12 00:12:29;;;;;;;4.73;3.57;;;;;;;;;;7427014;19;20167;-81
2022/06/12 00:14:55;;;;;;;5.17;3.93;;;;;;;;;;7428622;19;20375;-80
2022/06/12 00:17:22;;;;;;;4.23;3.67;;;;;;;;;;7425355;19;20160;-81
2022/06/12 00:19:49;;;;;;;4.97;3.57;;;;;;;;;;7403638;19;20178;-82
2022/06/12 00:22:15;;;;;;;4.93;3.40;;;;;;;;;;7392720;19;20145;-80
2022/06/12 00:24:41;;;;;;;7.00;3.57;;;;;;;;;;7393706;19;20132;-80
2022/06/12 00:27:07;;;;;;;3.63;3.27;;;;;;;;;;7394064;19;20149;-80
2022/06/12 00:29:34;;;;;;;5.60;3.30;;;;;;;;;;7392654;19;20169;-80
2022/06/12 00:32:08;;;;;;;5.17;3.07;;;;;;;;;;7389530;19;20148;-81
2022/06/12 00:34:41;;;;;;;4.63;3.50;;;;;;;;;;7412852;19;20144;-80
2022/06/12 00:37:09;;;;;;;4.27;3.57;;;;;;;;;;7415055;19;20183;-83
2022/06/12 00:39:36;;;;;;;5.07;3.53;;;;;;;;;;7390918;19;20133;-80
2022/06/12 00:42:02;;;;;;;4.30;3.73;;;;;;;;;;7391142;19;20161;-80
2022/06/12 00:44:32;;;;;;;4.37;3.47;;;;;;;;;;7391693;19;20149;-79
2022/06/12 00:47:05;;;;;;;4.67;3.63;;;;;;;;;;7388980;19;20164;-80
2022/06/12 00:49:34;;;;;;;5.00;3.60;;;;;;;;;;7391993;19;20635;-81
2022/06/12 00:52:07;;;;;;;4.97;3.50;;;;;;;;;;7393870;19;20527;-80
2022/06/12 00:54:34;;;;;;;4.17;3.07;;;;;;;;;;7394667;19;20129;-80
2022/06/12 00:57:03;;;;;;;5.90;3.63;;;;;;;;;;7392817;19;20157;-80
2022/06/12 00:59:29;;;;;;;5.70;3.70;;;;;;;;;;7391684;19;20470;-80
2022/06/12 01:01:55;;;;;;;3.93;3.53;;;;;;;;;;7394574;19;20117;-80
2022/06/12 01:07:09;;;;;;;6.93;4.40;;;;;;;;;;7393150;19;20179;-82
2022/06/12 01:09:38;;;;;;;6.77;4.07;;;;;;;;;;7390353;19;20156;-83
2022/06/12 01:12:05;;;;;;;5.23;4.00;;;;;;;;;;7393200;19;20184;-83
2022/06/12 01:14:33;;;;;;;5.50;3.67;;;;;;;;;;7386289;19;20630;-84
2022/06/12 01:17:00;;;;;;;5.90;4.20;;;;;;;;;;7388002;19;20176;-82
2022/06/12 01:19:30;;;;;;;5.80;4.30;;;;;;;;;;7391599;19;20702;-82
2022/06/12 01:22:14;;;;;;;5.03;3.60;;;;;;;;;;7391416;19;20175;-85
2022/06/12 01:24:59;;;;;;;4.53;3.83;;;;;;;;;;7390838;19;20160;-86
2022/06/12 01:27:31;;;;;;;4.93;3.70;;;;;;;;;;7389919;19;20184;-82
2022/06/12 01:30:16;;;;;;;4.47;3.80;;;;;;;;;;7394928;19;20528;-84
2022/06/12 13:31:58;;;;;;;2.47;2.00;;;;;;;;;;7386934;19;20192;-80
2022/06/12 13:34:25;;;;;;;2.00;1.90;;;;;;;;;;7390462;19;20268;-80
2022/06/12 13:36:51;;;;;;;2.40;2.28;;;;;;;;;;7387390;19;20215;-81
2022/06/12 13:39:27;;;;;;;2.15;1.90;;;;;;;;;;7391384;19;20606;-80
2022/06/12 13:42:05;;;;;;;2.97;2.00;;;;;;;;;;7396847;19;20158;-81
2022/06/12 13:44:33;;;;;;;1.92;1.83;;;;;;;;;;7399868;19;20155;-80
2022/06/12 13:47:12;;;;;;;2.58;1.98;;;;;;;;;;7397735;19;20190;-80
2022/06/12 13:49:44;;;;;;;2.22;2.03;;;;;;;;;;7401804;19;20128;-81
2022/06/12 13:52:25;;;;;;;2.15;2.05;;;;;;;;;;7393164;19;20610;-80
2022/06/12 13:54:51;;;;;;;2.47;1.95;;;;;;;;;;7400078;19;20610;-81
2022/06/12 13:57:47;;;;;;;2.10;1.90;;;;;;;;;;7396975;19;20631;-81
2022/06/12 14:00:32;;;;;;;4.50;4.20;;;;;;;;;;7396836;19;20571;-81
2022/06/12 14:02:58;;;;;;;2.67;2.50;;;;;;;;;;7399940;19;20132;-81
2022/06/12 14:05:26;;;;;;;2.22;2.00;;;;;;;;;;7401349;19;20157;-81
2022/06/12 14:07:52;;;;;;;2.17;1.98;;;;;;;;;;7401209;19;20156;-81
2022/06/12 14:10:30;;;;;;;2.28;2.17;;;;;;;;;;7399736;19;20173;-81
2022/06/12 14:12:58;;;;;;;2.70;2.50;;;;;;;;;;7402180;19;20616;-81
2022/06/12 14:15:39;;;;;;;2.00;1.70;;;;;;;;;;7399369;19;20224;-81
2022/06/12 14:18:06;;;;;;;1.75;1.65;;;;;;;;;;7401143;19;20485;-81
2022/06/12 14:20:36;;;;;;;1.85;1.75;;;;;;;;;;7416865;19;20533;-81
2022/06/12 14:23:24;;;;;;;2.05;1.80;;;;;;;;;;7429915;19;20149;-81
2022/06/12 14:25:55;;;;;;;1.60;1.50;;;;;;;;;;7430496;19;20145;-81
2022/06/12 14:28:21;;;;;;;1.77;1.52;;;;;;;;;;7430117;19;20143;-81
2022/06/12 14:31:05;;;;;;;1.70;1.60;;;;;;;;;;7398725;19;20156;-81
2022/06/12 14:33:33;;;;;;;18.02;16.38;;;;;;;;;;7400512;19;20611;-81
2022/06/12 14:36:01;;;;;;;2.85;2.53;;;;;;;;;;7401473;19;20141;-81
2022/06/12 14:38:28;;;;;;;1.90;1.80;;;;;;;;;;7428848;19;20175;-81
2022/06/12 14:40:54;;;;;;;4.03;3.72;;;;;;;;;;7431464;19;20132;-81
2022/06/12 14:43:30;;;;;;;5.13;2.03;;;;;;;;;;7428108;19;20136;-81
2022/06/12 14:46:00;;;;;;;1.80;1.70;;;;;;;;;;7427419;19;20170;-80
2022/06/12 14:48:30;;;;;;;1.92;1.83;;;;;;;;;;7429175;19;20139;-81
2022/06/12 14:50:57;;;;;;;1.85;1.75;;;;;;;;;;7428235;19;20154;-81
2022/06/12 14:53:23;;;;;;;2.20;2.10;;;;;;;;;;7403615;19;20148;-81
2022/06/12 14:55:49;;;;;;;2.75;2.55;;;;;;;;;;7397677;19;20173;-81
2022/06/12 14:58:26;;;;;;;2.13;2.03;;;;;;;;;;7400858;19;20159;-81
2022/06/12 15:00:53;;;;;;;2.50;1.98;;;;;;;;;;7399468;19;20124;-80
2022/06/12 15:03:19;;;;;;;2.42;2.25;;;;;;;;;;7398180;19;20179;-80
2022/06/12 15:05:45;;;;;;;1.80;1.70;;;;;;;;;;7399330;19;20159;-81
2022/06/12 15:08:11;;;;;;;2.05;1.92;;;;;;;;;;7397980;19;20159;-81
2022/06/12 15:10:38;;;;;;;2.30;2.10;;;;;;;;;;7395764;19;20167;-81
2022/06/12 15:13:05;;;;;;;4.07;3.67;;;;;;;;;;7402530;19;20143;-81
2022/06/12 15:15:31;;;;;;;2.15;2.00;;;;;;;;;;7396315;19;20144;-81
2022/06/12 15:17:57;;;;;;;3.08;2.88;;;;;;;;;;7398199;19;20141;-80
2022/06/12 15:20:23;;;;;;;1.98;1.88;;;;;;;;;;7395909;19;20608;-81
2022/06/12 15:22:49;;;;;;;2.13;2.03;;;;;;;;;;7397452;19;20144;-82
2022/06/12 15:29:46;;;;;;;2.17;2.08;;;;;;;;;;7397290;19;20146;-81
2022/06/12 15:30:53;;;;;;;3.35;2.20;;;;;;;;;;7400002;19;20217;-81
2022/06/12 15:33:19;;;;;;;2.45;2.00;;;;;;;;;;7426576;19;20128;-81
2022/06/12 15:35:45;;;;;;;2.25;2.10;;;;;;;;;;7427555;19;20137;-81
2022/06/12 15:38:11;;;;;;;3.28;3.08;;;;;;;;;;7407434;19;20143;-81
2022/06/12 15:40:37;;;;;;;2.45;2.33;;;;;;;;;;7395421;19;20161;-80
2022/06/12 15:43:03;;;;;;;2.10;2.00;;;;;;;;;;7398645;19;20613;-81
2022/06/12 15:45:30;;;;;;;2.90;2.70;;;;;;;;;;7398230;19;20147;-82
2022/06/12 15:47:56;;;;;;;2.40;2.20;;;;;;;;;;7396541;19;20160;-82
2022/06/12 15:50:22;;;;;;;4.72;2.33;;;;;;;;;;7394266;19;20220;-81
2022/06/12 15:52:48;;;;;;;2.22;2.03;;;;;;;;;;7396958;19;20145;-81
2022/06/12 15:55:14;;;;;;;2.58;2.10;;;;;;;;;;7397771;19;20482;-81
2022/06/12 15:57:40;;;;;;;2.67;2.47;;;;;;;;;;7390818;19;20148;-81
2022/06/12 16:00:08;;;;;;;3.72;1.70;;;;;;;;;;7393226;19;20147;-81
2022/06/12 16:02:34;;;;;;;2.22;2.03;;;;;;;;;;7395126;19;20155;-81
2022/06/12 16:05:00;;;;;;;2.05;1.90;;;;;;;;;;7393898;19;20150;-82
2022/06/12 16:07:26;;;;;;;1.65;1.55;;;;;;;;;;7391989;19;20177;-82
2022/06/12 16:09:54;;;;;;;1.98;1.88;;;;;;;;;;7391885;19;20178;-82
2022/06/12 16:12:20;;;;;;;2.00;1.90;;;;;;;;;;7391852;19;20264;-81
2022/06/12 16:14:46;;;;;;;6.53;5.97;;;;;;;;;;7394380;19;21024;-81
2022/06/12 16:17:13;;;;;;;2.53;2.10;;;;;;;;;;7391753;19;20280;-80
2022/06/12 16:19:39;;;;;;;3.33;1.90;;;;;;;;;;7395302;19;20141;-81
2022/06/12 16:22:05;;;;;;;2.33;2.13;;;;;;;;;;7393951;19;20501;-81
2022/06/12 16:24:31;;;;;;;2.58;2.28;;;;;;;;;;7394368;19;20129;-81
2022/06/12 16:26:57;;;;;;;2.40;2.20;;;;;;;;;;7390985;19;20243;-81
2022/06/12 16:29:23;;;;;;;3.03;2.83;;;;;;;;;;7392929;19;20157;-81
2022/06/12 16:31:49;;;;;;;2.63;2.47;;;;;;;;;;7394457;19;20149;-81
2022/06/12 16:34:15;;;;;;;2.30;2.10;;;;;;;;;;7393376;19;20560;-81
2022/06/12 16:36:41;;;;;;;2.33;2.17;;;;;;;;;;7397444;19;20168;-81
2022/06/12 16:39:08;;;;;;;4.07;3.78;;;;;;;;;;7410803;19;20171;-81
2022/06/12 16:41:46;;;;;;;3.53;2.95;;;;;;;;;;7414473;19;20190;-81
2022/06/12 16:44:20;;;;;;;2.78;2.58;;;;;;;;;;7390712;19;20597;-84
2022/06/12 16:46:47;;;;;;;3.25;2.42;;;;;;;;;;7391442;19;20157;-83
2022/06/12 16:49:14;;;;;;;2.05;1.80;;;;;;;;;;7393277;19;20146;-83
2022/06/12 16:51:55;;;;;;;2.10;2.00;;;;;;;;;;7393547;19;20694;-83
2022/06/12 16:54:21;;;;;;;2.30;2.10;;;;;;;;;;7391138;19;20152;-83
2022/06/12 16:56:47;;;;;;;3.05;2.80;;;;;;;;;;7389735;19;20236;-83
2022/06/12 16:59:14;;;;;;;3.45;3.00;;;;;;;;;;7389128;19;20156;-83
2022/06/12 17:01:42;;;;;;;3.80;2.78;;;;;;;;;;7386084;19;20153;-83
2022/06/12 17:04:08;;;;;;;5.18;4.68;;;;;;;;;;7389191;19;20163;-83
2022/06/12 17:06:37;;;;;;;6.78;6.18;;;;;;;;;;7387922;19;20675;-83
2022/06/12 17:09:03;;;;;;;5.20;4.43;;;;;;;;;;7386151;19;20148;-83
2022/06/12 17:11:29;;;;;;;5.38;4.60;;;;;;;;;;7382652;19;20922;-83
2022/06/12 17:13:56;;;;;;;7.47;6.05;;;;;;;;;;7387564;19;20618;-83
2022/06/12 17:16:22;;;;;;;3.67;3.38;;;;;;;;;;7383856;19;20581;-83
2022/06/12 17:21:32;;;;;;;2.72;2.50;;;;;;;;;;7384455;19;20138;-83
2022/06/12 17:23:59;;;;;;;5.50;4.63;;;;;;;;;;7387485;19;20642;-83
2022/06/12 17:26:25;;;;;;;7.72;6.00;;;;;;;;;;7398798;19;20136;-84
2022/06/12 17:28:51;;;;;;;2.40;2.20;;;;;;;;;;7417352;19;20152;-83
2022/06/12 17:31:17;;;;;;;3.50;2.10;;;;;;;;;;7420782;19;20184;-84
2022/06/12 17:33:43;;;;;;;2.20;2.00;;;;;;;;;;7423055;19;20128;-83
2022/06/12 17:36:09;;;;;;;2.63;2.42;;;;;;;;;;7420345;19;20169;-84
2022/06/12 17:38:35;;;;;;;4.15;2.50;;;;;;;;;;7411259;19;20865;-83
2022/06/12 17:41:01;;;;;;;2.10;2.00;;;;;;;;;;7390137;19;20491;-84
2022/06/12 17:43:27;;;;;;;4.53;2.33;;;;;;;;;;7393568;19;20160;-84
2022/06/12 17:45:54;;;;;;;2.47;2.28;;;;;;;;;;7382059;19;20157;-84
2022/06/12 17:48:20;;;;;;;2.58;2.30;;;;;;;;;;7383679;19;20160;-84
2022/06/12 17:50:46;;;;;;;3.10;2.80;;;;;;;;;;7384630;19;20638;-83
2022/06/12 17:53:13;;;;;;;2.50;2.30;;;;;;;;;;7388897;19;20700;-83
2022/06/12 17:55:43;;;;;;;4.63;2.47;;;;;;;;;;7396285;19;20164;-83
2022/06/12 17:58:09;;;;;;;3.53;2.20;;;;;;;;;;7387813;19;20228;-83
2022/06/12 18:00:35;;;;;;;4.10;2.13;;;;;;;;;;7391674;19;20614;-83
2022/06/12 18:03:01;;;;;;;2.33;2.13;;;;;;;;;;7386849;19;20530;-82
2022/06/12 18:05:27;;;;;;;2.25;1.88;;;;;;;;;;7385941;19;20638;-83
2022/06/12 18:07:53;;;;;;;2.38;2.13;;;;;;;;;;7386680;19;20153;-83
2022/06/12 18:10:20;;;;;;;2.40;2.20;;;;;;;;;;7387438;19;20153;-83
2022/06/12 18:12:47;;;;;;;2.38;2.17;;;;;;;;;;7385498;19;21874;-82
2022/06/12 18:20:43;;;;;;;2.65;2.28;;;;;;;;;;7401847;19;20127;-82
2022/06/12 18:23:09;;;;;;;2.90;2.60;;;;;;;;;;7382642;19;20162;-83
2022/06/12 18:25:35;;;;;;;3.20;2.03;;;;;;;;;;7388823;19;20531;-83
2022/06/12 18:28:01;;;;;;;2.75;2.00;;;;;;;;;;7383965;19;20125;-83
2022/06/12 18:30:28;;;;;;;2.40;2.20;;;;;;;;;;7392206;19;20160;-83
2022/06/12 18:32:54;;;;;;;2.75;1.77;;;;;;;;;;7392983;19;20182;-82
2022/06/12 18:35:21;;;;;;;2.88;1.90;;;;;;;;;;7390304;19;20137;-83
2022/06/12 18:37:47;;;;;;;1.92;1.60;;;;;;;;;;7395221;19;20153;-83
2022/06/12 18:40:14;;;;;;;3.95;1.90;;;;;;;;;;7406879;19;20158;-83
2022/06/12 18:42:40;;;;;;;2.80;2.20;;;;;;;;;;7421969;19;20153;-83
2022/06/12 18:45:06;;;;;;;3.35;2.25;;;;;;;;;;7413125;19;20229;-82
2022/06/12 18:47:32;;;;;;;3.60;2.38;;;;;;;;;;7388231;19;20195;-83
2022/06/12 18:49:58;;;;;;;3.78;2.30;;;;;;;;;;7393080;19;20148;-83
2022/06/12 18:52:24;;;;;;;2.15;1.95;;;;;;;;;;7392103;19;20145;-83
2022/06/12 18:54:50;;;;;;;3.10;2.30;;;;;;;;;;7393935;19;20153;-82
2022/06/12 18:57:17;;;;;;;1.98;1.83;;;;;;;;;;7397335;19;20156;-83
2022/06/12 18:59:44;;;;;;;2.47;1.98;;;;;;;;;;7388197;19;20140;-83
2022/06/12 19:02:10;;;;;;;3.47;2.05;;;;;;;;;;7393765;19;20164;-83
2022/06/12 19:04:36;;;;;;;2.42;1.75;;;;;;;;;;7394623;19;20149;-83
2022/06/12 19:07:03;;;;;;;2.30;1.90;;;;;;;;;;7395811;19;20157;-83
2022/06/12 19:09:30;;;;;;;2.83;2.53;;;;;;;;;;7388716;19;20125;-82
2022/06/12 19:11:57;;;;;;;2.38;2.15;;;;;;;;;;7391365;19;20182;-83
2022/06/12 19:14:29;;;;;;;3.03;2.20;;;;;;;;;;7394756;19;20129;-83
2022/06/12 19:16:56;;;;;;;3.17;2.08;;;;;;;;;;7390585;19;20183;-80
2022/06/12 19:19:26;;;;;;;3.75;1.77;;;;;;;;;;7389686;19;20196;-81
2022/06/12 19:21:52;;;;;;;3.25;2.05;;;;;;;;;;7388842;19;20167;-81
2022/06/12 19:24:19;;;;;;;3.10;1.90;;;;;;;;;;7397268;19;20497;-82
2022/06/12 19:26:45;;;;;;;2.40;1.98;;;;;;;;;;7391249;19;20549;-82
2022/06/12 19:29:12;;;;;;;4.97;2.58;;;;;;;;;;7393441;19;20619;-81
2022/06/12 19:31:38;;;;;;;3.05;2.03;;;;;;;;;;7382703;19;20176;-81
2022/06/12 19:34:04;;;;;;;2.42;1.90;;;;;;;;;;7394848;19;20138;-82
2022/06/12 19:36:31;;;;;;;2.83;2.28;;;;;;;;;;7394444;19;20148;-82
2022/06/12 19:38:57;;;;;;;2.22;2.03;;;;;;;;;;7395354;19;20129;-81
2022/06/12 19:41:23;;;;;;;3.53;2.28;;;;;;;;;;7396514;19;20157;-81
2022/06/12 19:43:53;;;;;;;5.13;2.20;;;;;;;;;;7394581;19;20545;-81
2022/06/12 19:46:21;;;;;;;2.92;2.00;;;;;;;;;;7390832;19;20177;-80
2022/06/12 19:48:52;;;;;;;2.58;1.92;;;;;;;;;;7392491;19;20137;-81
2022/06/12 19:51:21;;;;;;;1.80;1.70;;;;;;;;;;7394813;19;20176;-80
2022/06/12 19:53:47;;;;;;;3.03;1.98;;;;;;;;;;7385882;19;20221;-81
2022/06/12 19:56:13;;;;;;;3.33;1.90;;;;;;;;;;7385591;19;20295;-81
2022/06/12 19:58:38;;;;;;;4.15;2.10;;;;;;;;;;7396702;19;20125;-83
2022/06/12 20:01:07;;;;;;;2.55;1.70;;;;;;;;;;7396246;19;20217;-82
2022/06/12 20:10:08;;;;;;;2.25;1.70;;;;;;;;;;7392134;19;20148;-82
2022/06/12 20:12:34;;;;;;;3.83;2.15;;;;;;;;;;7393277;19;20495;-82
2022/06/12 20:15:01;;;;;;;2.33;1.67;;;;;;;;;;7392908;19;20157;-83
2022/06/12 20:17:28;;;;;;;3.20;1.67;;;;;;;;;;7389815;19;20190;-81
2022/06/12 20:19:54;;;;;;;1.85;1.70;;;;;;;;;;7391728;19;20405;-81
2022/06/12 20:22:20;;;;;;;3.15;2.22;;;;;;;;;;7393910;19;20156;-81
2022/06/12 20:24:46;;;;;;;2.25;1.83;;;;;;;;;;7393443;19;20399;-82
2022/06/12 20:27:13;;;;;;;2.20;1.80;;;;;;;;;;7390185;19;20626;-82
2022/06/12 20:29:39;;;;;;;1.85;1.75;;;;;;;;;;7391561;19;20189;-82
2022/06/12 20:32:06;;;;;;;2.08;1.80;;;;;;;;;;7389504;19;20149;-81
2022/06/12 20:34:33;;;;;;;4.75;1.95;;;;;;;;;;7394627;19;20132;-81
2022/06/12 20:36:59;;;;;;;3.58;1.85;;;;;;;;;;7390923;19;20164;-81
2022/06/12 20:39:25;;;;;;;2.13;1.70;;;;;;;;;;7395942;19;20136;-82
2022/06/12 20:41:51;;;;;;;22.67;4.53;;;;;;;;;;7394431;19;20129;-82
2022/06/12 20:44:18;;;;;;;9.52;2.55;;;;;;;;;;7391401;19;20149;-81
2022/06/12 20:46:47;;;;;;;4.22;2.95;;;;;;;;;;7387656;19;20172;-82
2022/06/12 20:49:13;;;;;;;7.10;3.53;;;;;;;;;;7392119;19;20133;-80
2022/06/12 20:51:39;;;;;;;5.18;3.10;;;;;;;;;;7388445;19;20160;-81
2022/06/12 20:54:05;;;;;;;6.47;3.78;;;;;;;;;;7391309;19;20579;-82
2022/06/12 20:56:32;;;;;;;6.15;3.17;;;;;;;;;;7390129;19;20148;-83
2022/06/12 20:58:58;;;;;;;6.65;3.50;;;;;;;;;;7389389;19;20152;-80
2022/06/12 21:01:24;;;;;;;7.88;4.43;;;;;;;;;;7390655;19;20196;-81
2022/06/12 21:03:50;;;;;;;4.75;3.10;;;;;;;;;;7390762;19;20171;-80
2022/06/12 21:06:16;;;;;;;7.85;3.47;;;;;;;;;;7387802;19;20215;-80
2022/06/12 21:08:42;;;;;;;5.00;3.83;;;;;;;;;;7391278;19;20144;-80
2022/06/12 21:11:08;;;;;;;6.65;4.07;;;;;;;;;;7389607;19;20156;-80
2022/06/12 21:13:34;;;;;;;4.70;3.03;;;;;;;;;;7390482;19;20153;-81
2022/06/12 21:16:00;;;;;;;5.28;3.13;;;;;;;;;;7391495;19;20177;-83
2022/06/12 21:18:26;;;;;;;5.82;2.30;;;;;;;;;;7386454;19;20147;-81
2022/06/12 21:20:52;;;;;;;4.82;3.00;;;;;;;;;;7389693;19;20163;-81
2022/06/12 21:23:18;;;;;;;5.25;3.22;;;;;;;;;;7386237;19;20486;-80
2022/06/12 21:25:46;;;;;;;3.35;3.00;;;;;;;;;;7390707;19;20195;-80
2022/06/12 21:28:13;;;;;;;5.13;3.17;;;;;;;;;;7387814;19;20137;-82
2022/06/12 21:30:39;;;;;;;4.20;3.08;;;;;;;;;;7389339;19;20132;-81
2022/06/12 21:33:06;;;;;;;3.53;3.00;;;;;;;;;;7378912;19;20186;-79
2022/06/12 21:35:33;;;;;;;3.92;3.15;;;;;;;;;;7386355;19;20155;-80
2022/06/12 21:37:59;;;;;;;5.38;3.10;;;;;;;;;;7380712;19;20151;-79
2022/06/12 21:40:25;;;;;;;3.58;2.63;;;;;;;;;;7389679;19;20133;-80
2022/06/12 21:42:51;;;;;;;4.05;2.70;;;;;;;;;;7392978;19;20359;-82
2022/06/12 21:45:19;;;;;;;3.42;2.42;;;;;;;;;;7397799;19;20128;-83
2022/06/12 21:47:48;;;;;;;3.10;2.47;;;;;;;;;;7409797;19;20144;-84
2022/06/12 21:50:14;;;;;;;2.50;2.22;;;;;;;;;;7406129;19;20178;-82
2022/06/12 21:55:25;;;;;;;3.75;2.35;;;;;;;;;;7379372;19;21016;-80
2022/06/12 21:57:51;;;;;;;2.63;2.00;;;;;;;;;;7384321;19;20140;-80
2022/06/12 22:00:18;;;;;;;7.10;2.58;;;;;;;;;;7386616;19;20736;-81
2022/06/12 22:02:45;;;;;;;3.55;2.13;;;;;;;;;;7382278;19;20164;-82
2022/06/12 22:05:11;;;;;;;3.22;2.35;;;;;;;;;;7394593;19;20745;-82
2022/06/12 22:07:36;;;;;;;5.72;2.10;;;;;;;;;;7387065;19;20207;-82
2022/06/12 22:10:03;;;;;;;3.27;2.07;;;;;;;;;;7391995;19;20512;-80
2022/06/12 22:12:29;;;;;;;4.35;2.20;;;;;;;;;;7390844;19;20591;-81
2022/06/12 22:14:55;;;;;;;3.72;2.22;;;;;;;;;;7385300;19;20133;-82
2022/06/12 22:17:21;;;;;;;3.80;1.80;;;;;;;;;;7386512;19;20583;-81
2022/06/12 22:19:47;;;;;;;5.32;2.50;;;;;;;;;;7374429;19;20236;-83
2022/06/12 22:22:13;;;;;;;4.55;2.15;;;;;;;;;;7381447;19;20670;-82
2022/06/12 22:24:39;;;;;;;2.30;2.08;;;;;;;;;;7386833;19;20152;-80
2022/06/12 22:27:07;;;;;;;2.20;2.00;;;;;;;;;;7388306;19;20212;-81
2022/06/12 22:29:33;;;;;;;2.70;2.00;;;;;;;;;;7390665;19;20145;-80
2022/06/12 22:31:59;;;;;;;3.00;2.08;;;;;;;;;;7387187;19;20623;-82
2022/06/12 22:34:26;;;;;;;2.72;2.28;;;;;;;;;;7386930;19;20223;-81
2022/06/12 22:36:52;;;;;;;3.42;1.95;;;;;;;;;;7387678;19;20307;-83
2022/06/12 22:39:18;;;;;;;3.75;2.38;;;;;;;;;;7393782;19;20121;-80
2022/06/12 22:41:43;;;;;;;2.30;2.10;;;;;;;;;;7388148;19;20293;-82
2022/06/12 22:44:09;;;;;;;3.55;2.95;;;;;;;;;;7378087;19;20145;-82
2022/06/12 22:46:35;;;;;;;3.17;2.40;;;;;;;;;;7369820;19;20172;-82
2022/06/12 22:49:02;;;;;;;3.30;2.25;;;;;;;;;;7370053;19;20566;-82
2022/06/12 22:51:28;;;;;;;3.20;2.13;;;;;;;;;;7383787;19;20179;-81
2022/06/12 22:53:54;;;;;;;2.50;2.17;;;;;;;;;;7379256;19;21606;-81
2022/06/12 22:56:20;;;;;;;2.70;2.30;;;;;;;;;;7379693;19;20228;-81
2022/06/12 22:58:46;;;;;;;2.88;2.25;;;;;;;;;;7386870;19;20538;-80
2022/06/12 23:01:14;;;;;;;3.08;2.08;;;;;;;;;;7389250;19;20598;-81
2022/06/12 23:03:40;;;;;;;2.70;2.50;;;;;;;;;;7387653;19;20141;-82
2022/06/12 23:06:06;;;;;;;3.33;2.50;;;;;;;;;;7390480;19;20202;-81
2022/06/12 23:08:33;;;;;;;6.30;2.30;;;;;;;;;;7382478;19;20166;-80
2022/06/12 23:10:59;;;;;;;3.45;2.30;;;;;;;;;;7369481;19;20156;-82
2022/06/12 23:13:25;;;;;;;2.45;2.25;;;;;;;;;;7370654;19;20492;-82
2022/06/12 23:15:51;;;;;;;3.50;2.63;;;;;;;;;;7373434;19;20168;-81
2022/06/12 23:18:17;;;;;;;2.67;2.40;;;;;;;;;;7373384;19;20603;-82
2022/06/12 23:20:43;;;;;;;3.40;2.63;;;;;;;;;;7372837;19;20140;-81
2022/06/12 23:23:28;;;;;;;2.80;2.17;;;;;;;;;;7378773;19;20121;-80
2022/06/12 23:26:05;;;;;;;2.50;2.30;;;;;;;;;;7378451;19;20951;-82
2022/06/12 23:28:33;;;;;;;2.50;2.30;;;;;;;;;;7383991;19;20151;-81
2022/06/12 23:30:59;;;;;;;2.67;2.42;;;;;;;;;;7385147;19;20208;-82
2022/06/12 23:33:26;;;;;;;2.38;2.17;;;;;;;;;;7384622;19;20197;-81
2022/06/12 23:35:53;;;;;;;4.35;2.35;;;;;;;;;;7384741;19;20160;-81
2022/06/12 23:38:20;;;;;;;2.38;2.17;;;;;;;;;;7383012;19;20160;-83
2022/06/12 23:40:46;;;;;;;2.95;2.60;;;;;;;;;;7385160;19;20171;-81
2022/06/12 23:43:12;;;;;;;3.25;2.45;;;;;;;;;;7382516;19;20152;-80
2022/06/12 23:45:38;;;;;;;4.15;2.35;;;;;;;;;;7386494;19;20247;-82
2022/06/12 23:48:05;;;;;;;2.95;2.58;;;;;;;;;;7387837;19;20137;-80
2022/06/12 23:50:31;;;;;;;9.88;3.17;;;;;;;;;;7401878;19;20161;-82
2022/06/12 23:52:57;;;;;;;3.25;2.50;;;;;;;;;;7423762;19;20129;-82
2022/06/12 23:55:23;;;;;;;2.50;2.30;;;;;;;;;;7425755;19;20134;-82
2022/06/12 23:57:49;;;;;;;2.72;2.38;;;;;;;;;;7410905;19;20125;-83
